Time;durP1;ratioP1;P1;durP2;ratioP2;P2;SDS_P1;SDS_P2;PMS_P1;PMS_P2;Temp;Humidity;BMP_temperature;BMP_pressure;BME280_temperature;BME280_humidity;BME280_pressure;Samples;Min_cycle;Max_cycle;Signal;HPM_P1;HPM_P2
2022/06/22 00:05:38;;;;;;;1.58;1.48;;;;;;;18.22;76.52;101138.53;20882705;28;20045;-76
2022/06/22 00:15:47;;;;;;;1.55;1.10;;;;;;;18.18;76.50;101134.41;20799461;28;20514;-76
2022/06/22 00:25:48;;;;;;;2.10;1.60;;;;;;;18.21;76.39;101144.91;20871274;28;20065;-76
2022/06/22 00:36:02;;;;;;;1.88;1.63;;;;;;;18.20;76.25;101140.50;20870873;28;20049;-76
2022/06/22 00:46:13;;;;;;;1.70;1.60;;;;;;;18.20;76.28;101137.81;20800071;28;20046;-76
2022/06/22 00:56:38;;;;;;;1.92;1.70;;;;;;;18.07;76.08;101111.06;20797991;28;20045;-76
2022/06/22 01:06:53;;;;;;;1.97;1.40;;;;;;;18.15;75.99;101134.66;20813043;28;20529;-77
2022/06/22 01:16:57;;;;;;;1.63;1.53;;;;;;;18.18;75.90;101139.78;20880430;28;20099;-76
2022/06/22 01:27:18;;;;;;;1.40;1.23;;;;;;;18.17;75.65;101140.78;20830862;28;20045;-76
2022/06/22 01:37:27;;;;;;;1.48;1.38;;;;;;;18.17;75.67;101143.47;20794630;28;20057;-76
2022/06/22 01:47:40;;;;;;;1.58;1.33;;;;;;;18.00;75.32;101105.31;20890662;28;20056;-76
2022/06/22 01:58:07;;;;;;;1.30;1.20;;;;;;;18.15;75.03;101131.97;20840939;28;20038;-77
2022/06/22 02:08:14;;;;;;;1.40;1.30;;;;;;;18.15;74.72;101131.97;20826100;28;20048;-77
2022/06/22 02:18:24;;;;;;;1.33;1.20;;;;;;;18.05;74.44;101123.81;20808674;28;20046;-77
2022/06/22 02:28:26;;;;;;;1.90;1.33;;;;;;;18.03;74.26;101129.31;20823215;28;20056;-76
2022/06/22 02:38:28;;;;;;;1.50;1.30;;;;;;;17.99;74.12;101125.16;20806998;28;20052;-77
2022/06/22 02:48:32;;;;;;;1.30;1.20;;;;;;;18.11;73.84;101147.53;20806054;28;20571;-77
2022/06/22 02:58:36;;;;;;;2.58;1.50;;;;;;;18.10;73.31;101146.66;20875452;28;20102;-76
2022/06/22 03:08:38;;;;;;;1.20;1.10;;;;;;;18.09;73.20;101136.03;20929634;28;20502;-76
2022/06/22 03:18:42;;;;;;;1.52;1.35;;;;;;;18.08;73.05;101140.56;20962576;28;20405;-77
2022/06/22 03:28:50;;;;;;;1.40;1.30;;;;;;;18.07;72.65;101128.06;20836618;28;20046;-77
2022/06/22 03:39:05;;;;;;;1.95;1.30;;;;;;;18.06;72.44;101137.16;20859605;28;20052;-76
2022/06/22 03:49:10;;;;;;;1.43;1.10;;;;;;;18.06;72.25;101115.59;20849087;28;20067;-76
2022/06/22 03:59:12;;;;;;;1.40;1.30;;;;;;;18.06;72.08;101103.97;20826053;28;20138;-77
2022/06/22 04:09:17;;;;;;;1.30;1.20;;;;;;;18.04;71.70;101090.63;20865822;28;20059;-77
2022/06/22 04:19:32;;;;;;;1.30;1.10;;;;;;;18.03;71.43;101083.53;20770366;28;20514;-76
2022/06/22 04:29:38;;;;;;;1.27;1.17;;;;;;;18.03;71.38;101086.22;20827449;28;20088;-76
2022/06/22 04:39:42;;;;;;;1.15;1.05;;;;;;;17.92;71.59;101053.94;20854951;28;20044;-76
2022/06/22 04:49:46;;;;;;;1.17;1.08;;;;;;;18.04;72.11;101069.06;20861330;28;20077;-76
2022/06/22 04:59:49;;;;;;;1.30;1.10;;;;;;;18.04;72.91;101073.63;20770663;28;20057;-77
2022/06/22 05:09:55;;;;;;;1.63;1.45;;;;;;;17.82;74.29;101087.06;20826212;28;20134;-76
2022/06/22 05:20:02;;;;;;;1.88;1.23;;;;;;;18.10;76.06;101145.84;20826310;28;20049;-77
2022/06/22 05:30:06;;;;;;;2.13;1.40;;;;;;;17.98;76.15;101123.44;20847370;28;20057;-76
2022/06/22 05:40:08;;;;;;;1.85;1.40;;;;;;;18.11;76.03;101139.47;20776215;28;20498;-76
2022/06/22 05:50:39;;;;;;;2.67;2.03;;;;;;;18.10;76.09;101143.13;20819449;28;20150;-76
2022/06/22 06:00:47;;;;;;;1.50;1.33;;;;;;;18.08;76.16;101140.56;20810508;28;20053;-76
2022/06/22 06:10:49;;;;;;;1.65;1.30;;;;;;;17.93;76.03;101126.56;20860091;28;20064;-77
2022/06/22 06:20:59;;;;;;;3.55;1.80;;;;;;;18.08;76.54;101150.50;20796119;28;20064;-76
2022/06/22 06:31:31;;;;;;;2.53;1.30;;;;;;;18.07;76.42;101152.31;20770884;28;20049;-76
2022/06/22 06:41:40;;;;;;;1.63;1.27;;;;;;;18.07;76.97;101155.03;20780878;28;20050;-77
2022/06/22 06:51:47;;;;;;;2.13;1.50;;;;;;;18.07;77.09;101146.09;20741960;28;20468;-75
2022/06/22 07:01:49;;;;;;;2.42;1.45;;;;;;;18.06;77.20;101158.69;20846473;28;20460;-76
2022/06/22 07:11:54;;;;;;;2.45;1.75;;;;;;;17.54;77.10;101075.09;20829556;28;20046;-77
2022/06/22 07:22:00;;;;;;;2.95;1.40;;;;;;;18.06;77.03;101153.31;20808231;28;20048;-76
2022/06/22 07:32:31;;;;;;;1.50;1.33;;;;;;;18.22;76.15;101152.84;20868422;28;20052;-76
2022/06/22 07:42:33;;;;;;;2.10;1.52;;;;;;;18.38;75.97;101163.16;20785112;28;20056;-76
2022/06/22 07:52:47;;;;;;;1.85;1.10;;;;;;;18.46;75.28;101165.19;20757094;28;20177;-76
2022/06/22 08:03:16;;;;;;;1.85;1.45;;;;;;;18.53;75.12;101162.81;20775170;28;20128;-76
2022/06/22 08:13:22;;;;;;;2.22;1.40;;;;;;;18.47;74.88;101152.56;20821893;28;20061;-77
2022/06/22 08:23:26;;;;;;;1.85;1.30;;;;;;;18.41;74.38;101144.03;20860649;28;20556;-77
2022/06/22 08:33:45;;;;;;;2.45;1.38;;;;;;;18.41;73.89;101135.94;20842470;28;20049;-77
2022/06/22 08:43:57;;;;;;;1.90;1.30;;;;;;;18.58;73.88;101163.28;20824644;28;20057;-78
2022/06/22 08:54:10;;;;;;;1.38;1.20;;;;;;;18.58;73.86;101151.63;20805070;28;20099;-77
2022/06/22 09:04:30;;;;;;;1.30;1.15;;;;;;;18.57;73.87;101161.56;20789481;28;20045;-75
2022/06/22 09:15:15;;;;;;;1.63;1.25;;;;;;;18.55;73.81;101152.72;20807012;28;20060;-75
2022/06/22 09:25:22;;;;;;;2.45;1.10;;;;;;;18.54;73.70;101169.91;20826661;28;20056;-76
2022/06/22 09:35:43;;;;;;;2.65;1.30;;;;;;;18.53;73.71;101181.69;20751244;28;20506;-76
2022/06/22 09:46:18;;;;;;;2.65;1.30;;;;;;;18.50;73.57;101180.13;20834140;28;20142;-76
2022/06/22 09:56:46;;;;;;;1.73;1.17;;;;;;;18.49;73.37;101197.28;20826553;28;20052;-76
2022/06/22 10:07:26;;;;;;;1.70;1.20;;;;;;;18.48;73.34;101189.31;20767032;28;20106;-76
2022/06/22 10:17:45;;;;;;;1.60;1.17;;;;;;;18.47;73.57;101184.91;20779805;28;20057;-76
2022/06/22 10:28:12;;;;;;;1.10;1.00;;;;;;;18.46;73.40;101191.28;20830748;28;20387;-76
2022/06/22 10:38:20;;;;;;;1.10;1.00;;;;;;;18.46;73.14;101184.06;20797465;28;20049;-76
2022/06/22 10:48:56;;;;;;;1.70;0.93;;;;;;;18.46;72.92;101169.72;20794713;28;20052;-77
2022/06/22 10:59:04;;;;;;;1.27;0.90;;;;;;;18.45;72.52;101163.50;20785133;28;20054;-77
2022/06/22 11:09:24;;;;;;;1.00;0.90;;;;;;;18.45;72.57;101151.84;20758513;28;20284;-75
2022/06/22 11:19:40;;;;;;;1.23;1.13;;;;;;;18.43;72.66;101126.88;20815138;28;20065;-76
2022/06/22 11:40:44;;;;;;;1.75;1.30;;;;;;;18.43;72.68;101121.47;20824451;28;20084;-76
2022/06/22 11:50:54;;;;;;;1.67;1.10;;;;;;;18.41;72.38;101111.69;20810248;28;20057;-77
2022/06/22 12:01:26;;;;;;;1.13;1.00;;;;;;;18.43;72.50;101110.69;20857211;28;20044;-76
2022/06/22 12:11:33;;;;;;;1.33;0.77;;;;;;;18.42;72.53;101109.84;20880258;28;20044;-76
2022/06/22 12:21:57;;;;;;;1.30;0.90;;;;;;;18.41;72.32;101089.28;20845982;28;20528;-76
2022/06/22 12:32:12;;;;;;;1.20;1.10;;;;;;;18.35;72.17;101070.94;20769363;28;20544;-76
2022/06/22 12:42:38;;;;;;;1.80;1.20;;;;;;;18.44;72.15;101069.25;20779968;28;20045;-76
2022/06/22 12:52:44;;;;;;;1.65;0.90;;;;;;;18.52;71.86;101056.81;20778236;28;20107;-77
2022/06/22 13:02:47;;;;;;;1.15;0.95;;;;;;;18.62;71.21;101056.84;20755813;28;20053;-74
2022/06/22 13:12:54;;;;;;;1.58;1.00;;;;;;;18.72;70.87;101056.03;20783453;28;20088;-74
2022/06/22 13:23:01;;;;;;;3.13;1.27;;;;;;;18.77;70.98;101048.38;20786363;28;20498;-75
2022/06/22 13:33:13;;;;;;;1.05;0.82;;;;;;;18.58;70.73;101012.28;20819015;28;20576;-75
2022/06/22 13:43:21;;;;;;;1.63;1.10;;;;;;;18.79;71.27;101046.38;20780230;28;20380;-74
2022/06/22 13:53:35;;;;;;;1.17;1.00;;;;;;;18.80;71.43;101042.69;20869675;28;20057;-75
2022/06/22 14:03:42;;;;;;;1.05;0.90;;;;;;;18.81;71.61;101033.63;20847090;28;20049;-74
2022/06/22 14:13:59;;;;;;;2.13;1.20;;;;;;;18.81;71.74;101023.69;20789702;28;20057;-74
2022/06/22 14:24:12;;;;;;;1.83;1.17;;;;;;;18.83;71.69;101027.09;20776199;28;20045;-74
2022/06/22 14:34:49;;;;;;;1.35;0.82;;;;;;;18.34;71.81;100929.94;20785828;28;20053;-75
2022/06/22 14:44:59;;;;;;;1.50;1.20;;;;;;;18.88;71.97;101013.19;20805958;28;20049;-75
2022/06/22 14:55:13;;;;;;;2.70;1.20;;;;;;;18.86;72.02;101004.38;20856346;28;20448;-75
2022/06/22 15:05:29;;;;;;;1.58;1.20;;;;;;;18.80;71.81;101005.81;20839391;28;20049;-74
2022/06/22 15:15:46;;;;;;;1.58;1.33;;;;;;;18.71;71.61;100990.44;20784914;28;20108;-75
2022/06/22 15:25:51;;;;;;;1.48;1.15;;;;;;;18.74;71.71;101005.50;20801299;28;20056;-76
2022/06/22 15:35:59;;;;;;;1.30;1.20;;;;;;;18.72;71.57;100999.41;20787923;28;20056;-75
2022/06/22 15:46:07;;;;;;;1.65;1.30;;;;;;;18.70;71.86;100999.53;20767712;28;20664;-74
2022/06/22 15:56:21;;;;;;;1.90;1.10;;;;;;;18.69;71.95;101001.38;20781978;28;20054;-74
2022/06/22 16:06:35;;;;;;;1.98;1.25;;;;;;;18.68;72.31;100988.88;20766001;28;20045;-75
2022/06/22 16:16:58;;;;;;;2.97;1.50;;;;;;;18.68;72.13;100980.81;20764725;28;20067;-75
2022/06/22 16:27:23;;;;;;;1.98;1.48;;;;;;;18.67;71.95;100979.09;20841481;28;20064;-76
2022/06/22 16:37:28;;;;;;;3.30;1.87;;;;;;;18.67;72.03;100984.50;20789519;28;20063;-76
2022/06/22 16:48:22;;;;;;;3.47;2.40;;;;;;;18.68;71.92;101004.19;20817388;28;20304;-75
2022/06/22 16:58:32;;;;;;;5.32;2.75;;;;;;;18.68;72.32;101002.38;20793983;28;20048;-75
2022/06/22 17:09:08;;;;;;;5.05;3.38;;;;;;;18.69;72.59;101005.91;20835246;28;20493;-76
2022/06/22 17:19:27;;;;;;;5.07;3.22;;;;;;;18.70;73.20;101005.78;20858727;28;20136;-76
2022/06/22 17:29:32;;;;;;;3.92;3.03;;;;;;;18.72;73.75;101012.88;20860776;28;20049;-76
2022/06/22 17:39:46;;;;;;;5.22;3.60;;;;;;;18.71;74.98;101020.09;20843204;28;20053;-74
2022/06/22 17:49:48;;;;;;;7.28;4.60;;;;;;;18.70;76.17;101029.19;20886063;28;20040;-74
2022/06/22 18:00:03;;;;;;;5.88;4.00;;;;;;;18.69;76.87;101038.25;20804734;28;20498;-75
2022/06/22 18:10:10;;;;;;;5.73;3.90;;;;;;;18.67;77.02;101038.41;20809873;28;20046;-75
2022/06/22 18:20:19;;;;;;;6.97;4.07;;;;;;;18.67;77.33;101040.25;20837607;28;20041;-75
2022/06/22 18:30:35;;;;;;;6.75;3.95;;;;;;;18.67;77.88;101043.81;20867536;28;20036;-77
2022/06/22 18:51:34;;;;;;;6.75;4.22;;;;;;;18.61;78.99;101043.50;20785187;28;20418;-76
2022/06/22 19:01:40;;;;;;;6.55;3.35;;;;;;;18.49;79.20;101021.19;20806776;28;20530;-76
2022/06/22 19:11:53;;;;;;;6.10;2.97;;;;;;;18.53;79.29;101036.09;20805878;28;20055;-77
2022/06/22 19:22:08;;;;;;;5.60;2.92;;;;;;;18.60;79.05;101039.97;20804842;28;20562;-76
2022/06/22 19:32:40;;;;;;;5.15;3.40;;;;;;;18.59;79.09;101043.66;20867661;28;20468;-76
2022/06/22 19:43:05;;;;;;;4.50;2.85;;;;;;;18.60;79.62;101052.59;20804511;28;20071;-76
2022/06/22 19:53:29;;;;;;;5.55;2.95;;;;;;;18.58;79.55;101070.75;20801532;28;21152;-76
2022/06/22 20:03:37;;;;;;;3.95;2.85;;;;;;;18.58;79.72;101087.78;20785168;28;20067;-77
2022/06/22 20:14:12;;;;;;;3.75;2.42;;;;;;;18.58;80.09;101093.19;20800996;28;20599;-76
2022/06/22 20:25:00;;;;;;;4.72;2.45;;;;;;;17.76;80.13;100950.28;20880631;28;20137;-76
2022/06/22 20:35:20;;;;;;;3.83;2.38;;;;;;;18.56;80.46;101100.56;20831657;28;20106;-77
2022/06/22 20:45:37;;;;;;;3.53;2.50;;;;;;;18.56;80.25;101097.84;20879835;28;20041;-77
2022/06/22 20:55:46;;;;;;;2.63;2.20;;;;;;;18.56;80.34;101114.03;20877615;28;20453;-77
2022/06/22 21:05:48;;;;;;;3.10;2.17;;;;;;;18.54;80.43;101113.28;20880578;28;20090;-77
2022/06/22 21:15:51;;;;;;;3.00;2.17;;;;;;;18.54;80.58;101113.28;20878685;28;20490;-77
2022/06/22 21:26:01;;;;;;;2.50;1.83;;;;;;;18.55;80.77;101123.09;20879103;28;20132;-77
2022/06/22 21:36:04;;;;;;;2.97;1.75;;;;;;;18.36;80.65;101111.22;20879595;28;20037;-77
2022/06/22 21:46:44;;;;;;;2.83;1.75;;;;;;;18.53;80.66;101134.00;20878135;28;20041;-77
2022/06/22 21:57:04;;;;;;;2.53;1.85;;;;;;;18.53;80.43;101143.94;20878663;28;20053;-77
2022/06/22 22:07:07;;;;;;;2.55;1.75;;;;;;;18.41;80.50;101132.41;20894619;28;20042;-77
2022/06/22 22:17:13;;;;;;;1.75;1.55;;;;;;;18.51;80.71;101135.13;20891138;28;20102;-77
2022/06/22 22:27:24;;;;;;;2.58;1.60;;;;;;;18.31;80.41;101100.00;20890448;28;20490;-77
2022/06/22 22:37:26;;;;;;;3.08;1.80;;;;;;;18.50;80.50;101133.41;20824347;28;20498;-77
2022/06/22 22:47:35;;;;;;;2.92;1.63;;;;;;;18.34;80.69;101124.00;20807312;28;20037;-76
2022/06/22 22:58:03;;;;;;;2.00;1.38;;;;;;;18.49;80.36;101147.88;20857472;28;20044;-77
2022/06/22 23:08:11;;;;;;;1.80;1.58;;;;;;;18.48;80.51;101138.09;20878331;28;20059;-77
2022/06/22 23:18:16;;;;;;;2.47;1.17;;;;;;;18.47;80.54;101149.88;20807843;28;20129;-77
2022/06/22 23:28:19;;;;;;;;;;;;;;;18.47;80.43;101144.47;20870130;28;20067;-77
2022/06/22 23:38:20;;;;;;;1.73;1.20;;;;;;;18.46;80.26;101148.16;20869173;28;20396;-76
2022/06/22 23:48:28;;;;;;;1.90;1.48;;;;;;;18.45;80.39;101143.75;20886481;28;20045;-77
2022/06/22 23:58:33;;;;;;;1.83;1.33;;;;;;;18.44;80.21;101152.81;20868445;28;20049;-77
